Time;durP1;ratioP1;P1;durP2;ratioP2;P2;SDS_P1;SDS_P2;PMS_P1;PMS_P2;Temp;Humidity;BMP_temperature;BMP_pressure;BME280_temperature;BME280_humidity;BME280_pressure;Samples;Min_cycle;Max_cycle;Signal;HPM_P1;HPM_P2
2021/05/01 00:00:46;;;;;;;;;;;;;;;15.50;69.63;99770.68;1787287;79;20266;-59
2021/05/01 00:03:15;;;;;;;;;;;;;;;15.47;69.54;99773.89;1787181;79;20231;-61
2021/05/01 00:05:42;;;;;;;;;;;;;;;15.45;69.48;99775.25;1793824;77;20239;-59
2021/05/01 00:08:10;;;;;;;;;;;;;;;15.40;69.50;99772.80;1790800;79;20309;-59
2021/05/01 00:10:39;;;;;;;;;;;;;;;15.36;69.47;99777.09;1789421;79;21198;-60
2021/05/01 00:13:06;;;;;;;;;;;;;;;15.32;69.52;99782.74;1788308;79;20168;-60
2021/05/01 00:15:34;;;;;;;;;;;;;;;15.29;69.61;99783.83;1763516;79;20174;-59
2021/05/01 00:18:02;;;;;;;;;;;;;;;15.26;69.62;99777.05;1782113;79;20193;-60
2021/05/01 00:20:30;;;;;;;;;;;;;;;15.25;69.65;99778.12;1764363;79;20254;-60
2021/05/01 00:22:57;;;;;;;;;;;;;;;15.24;69.66;99782.72;1789818;79;22045;-60
2021/05/01 00:25:25;;;;;;;;;;;;;;;15.24;69.57;99789.47;1789870;79;20158;-59
2021/05/01 00:27:53;;;;;;;;;;;;;;;15.25;69.40;99787.57;1790567;79;20203;-59
2021/05/01 00:30:23;;;;;;;;;;;;;;;15.27;69.24;99785.44;1789649;79;20955;-60
2021/05/01 00:32:51;;;;;;;;;;;;;;;15.28;69.14;99790.29;1789271;79;20317;-60
2021/05/01 00:35:19;;;;;;;;;;;;;;;15.26;69.04;99781.66;1789105;79;21416;-59
2021/05/01 00:37:48;;;;;;;;;;;;;;;15.22;68.99;99787.58;1785792;79;20229;-61
2021/05/01 00:40:17;;;;;;;;;;;;;;;15.20;68.98;99796.46;1788181;79;20224;-61
2021/05/01 00:42:44;;;;;;;;;;;;;;;15.17;69.01;99798.34;1789623;79;20266;-60
2021/05/01 00:45:12;;;;;;;;;;;;;;;15.16;69.04;99801.30;1788170;79;20256;-58
2021/05/01 00:47:40;;;;;;;;;;;;;;;15.12;69.02;99806.43;1789926;79;21195;-59
2021/05/01 00:50:09;;;;;;;;;;;;;;;15.09;69.02;99811.00;1785016;79;20523;-61
2021/05/01 00:52:37;;;;;;;;;;;;;;;15.06;69.03;99811.50;1779707;79;20544;-58
2021/05/01 00:55:05;;;;;;;;;;;;;;;15.04;68.95;99810.41;1767243;79;20341;-58
2021/05/01 00:57:34;;;;;;;;;;;;;;;15.02;68.90;99813.92;1761907;79;20610;-58
2021/05/01 01:00:04;;;;;;;;;;;;;;;14.98;68.87;99813.36;1764221;79;21190;-61
2021/05/01 01:02:31;;;;;;;;;;;;;;;14.93;68.86;99815.49;1788733;79;20241;-58
2021/05/01 01:05:00;;;;;;;;;;;;;;;14.89;68.93;99821.93;1758039;79;20202;-59
2021/05/01 01:07:29;;;;;;;;;;;;;;;14.84;68.97;99815.16;1767368;79;20240;-59
2021/05/01 01:09:56;;;;;;;;;;;;;;;14.82;68.96;99828.08;1789301;79;20255;-59
2021/05/01 01:12:25;;;;;;;;;;;;;;;14.78;68.95;99833.75;1787270;79;22299;-61
2021/05/01 01:14:56;;;;;;;;;;;;;;;14.75;68.96;99840.17;1787680;79;20227;-61
2021/05/01 01:17:24;;;;;;;;;;;;;;;14.72;68.97;99837.45;1789167;79;20235;-60
2021/05/01 01:19:53;;;;;;;;;;;;;;;14.67;68.99;99836.88;1766693;79;20281;-60
2021/05/01 01:22:21;;;;;;;;;;;;;;;14.63;68.96;99841.70;1765377;79;20318;-58
2021/05/01 01:24:49;;;;;;;;;;;;;;;14.59;68.95;99839.20;1786351;79;21173;-59
2021/05/01 01:27:17;;;;;;;;;;;;;;;14.54;68.91;99842.14;1790493;79;20727;-59
2021/05/01 01:29:47;;;;;;;;;;;;;;;14.51;68.89;99844.55;1788617;79;20195;-59
2021/05/01 01:32:15;;;;;;;;;;;;;;;14.48;68.80;99849.11;1783322;79;20254;-61
2021/05/01 01:34:43;;;;;;;;;;;;;;;14.45;68.78;99849.63;1786412;79;20262;-59
2021/05/01 01:37:11;;;;;;;;;;;;;;;14.40;68.84;99854.44;1788593;79;20601;-60
2021/05/01 01:39:42;;;;;;;;;;;;;;;14.35;68.96;99855.22;1780222;79;20195;-60
2021/05/01 01:42:11;;;;;;;;;;;;;;;14.29;69.08;99856.21;1762804;79;20187;-59
2021/05/01 01:44:39;;;;;;;;;;;;;;;14.26;69.24;99860.77;1698470;83;20253;-59
2021/05/01 01:47:08;;;;;;;;;;;;;;;14.24;69.21;99862.11;1700826;83;20345;-59
2021/05/01 01:49:38;;;;;;;;;;;;;;;14.20;69.23;99862.59;1702727;82;21199;-62
2021/05/01 01:52:06;;;;;;;;;;;;;;;14.16;69.44;99866.89;1701214;83;20329;-58
2021/05/01 01:54:33;;;;;;;;;;;;;;;14.13;69.57;99866.05;1673502;83;20178;-60
2021/05/01 01:57:01;;;;;;;;;;;;;;;14.11;69.69;99866.82;1701098;83;20343;-60
2021/05/01 01:59:31;;;;;;;;;;;;;;;14.08;69.75;99864.64;1699637;83;20352;-59
2021/05/01 02:01:59;;;;;;;;;;;;;;;14.06;69.92;99868.12;1723641;82;21205;-59
2021/05/01 02:04:27;;;;;;;;;;;;;;;14.06;70.09;99864.59;1700819;83;20255;-60
2021/05/01 02:06:55;;;;;;;;;;;;;;;14.05;70.19;99867.03;1700099;83;20260;-60
2021/05/01 02:09:24;;;;;;;;;;;;;;;14.05;70.35;99866.48;1761565;79;20199;-59
2021/05/01 02:11:53;;;;;;;;;;;;;;;14.07;70.43;99869.73;1790184;79;20259;-60
2021/05/01 02:14:21;;;;;;;;;;;;;;;14.09;70.57;99866.78;1786992;79;21189;-60
2021/05/01 02:16:49;;;;;;;;;;;;;;;14.11;70.54;99871.41;1789004;79;20238;-59
2021/05/01 02:19:17;;;;;;;;;;;;;;;14.11;70.50;99871.41;1795169;79;20257;-60
2021/05/01 02:21:45;;;;;;;;;;;;;;;14.09;70.53;99877.56;1785645;79;20293;-60
2021/05/01 02:24:14;;;;;;;;;;;;;;;14.08;70.54;99879.45;1788476;79;20249;-61
2021/05/01 02:26:42;;;;;;;;;;;;;;;14.07;70.53;99887.80;1785426;79;21196;-60
2021/05/01 02:29:10;;;;;;;;;;;;;;;14.05;70.70;99888.05;1773036;79;20368;-59
2021/05/01 02:31:38;;;;;;;;;;;;;;;14.04;70.75;99887.77;1794071;79;20522;-60
2021/05/01 02:34:05;;;;;;;;;;;;;;;14.05;70.81;99892.09;1786815;79;20547;-60
2021/05/01 02:36:33;;;;;;;;;;;;;;;14.06;70.78;99895.08;1788111;79;20146;-60
2021/05/01 02:39:04;;;;;;;;;;;;;;;14.07;70.68;99893.98;1792290;79;22332;-60
2021/05/01 02:41:33;;;;;;;;;;;;;;;14.09;70.51;99904.52;1788561;78;20250;-60
2021/05/01 02:44:01;;;;;;;;;;;;;;;14.08;70.28;99902.91;1789173;79;20848;-60
2021/05/01 02:46:30;;;;;;;;;;;;;;;14.04;70.00;99907.98;1787606;79;20227;-61
2021/05/01 02:48:58;;;;;;;;;;;;;;;13.99;69.83;99909.28;1761433;79;20193;-61
2021/05/01 02:51:26;;;;;;;;;;;;;;;13.94;69.74;99917.28;1763380;79;22152;-59
2021/05/01 02:53:53;;;;;;;;;;;;;;;13.91;69.93;99921.28;1789095;79;20625;-59
2021/05/01 02:56:21;;;;;;;;;;;;;;;13.90;70.11;99920.20;1788507;79;20630;-59
2021/05/01 02:58:49;;;;;;;;;;;;;;;13.93;70.21;99926.45;1788948;79;20178;-60
2021/05/01 03:01:17;;;;;;;;;;;;;;;13.95;70.32;99932.40;1784491;79;20304;-58
2021/05/01 03:03:46;;;;;;;;;;;;;;;13.96;70.38;99929.99;1786987;79;21193;-60
2021/05/01 03:06:15;;;;;;;;;;;;;;;13.97;70.39;99929.74;1790725;79;20225;-59
2021/05/01 03:08:43;;;;;;;;;;;;;;;13.98;70.39;99925.16;1786940;79;20499;-60
2021/05/01 03:11:11;;;;;;;;;;;;;;;13.97;70.50;99925.70;1788394;79;20712;-60
2021/05/01 03:13:39;;;;;;;;;;;;;;;14.00;70.71;99939.18;1789195;79;20227;-60
2021/05/01 03:16:08;;;;;;;;;;;;;;;14.05;70.84;99943.30;1791483;79;21195;-61
2021/05/01 03:18:36;;;;;;;;;;;;;;;14.05;70.92;99944.64;1786702;79;20222;-61
2021/05/01 03:21:05;;;;;;;;;;;;;;;14.10;71.09;99948.73;1787442;79;20170;-61
2021/05/01 03:23:33;;;;;;;;;;;;;;;14.17;71.09;99947.21;1787937;79;20166;-59
2021/05/01 03:26:01;;;;;;;;;;;;;;;14.29;71.02;99945.18;1784789;79;20286;-59
2021/05/01 03:28:29;;;;;;;;;;;;;;;14.49;70.86;99949.98;1788886;79;21205;-60
2021/05/01 03:30:59;;;;;;;;;;;;;;;14.84;70.54;99956.83;1785710;79;20159;-60
2021/05/01 03:33:28;;;;;;;;;;;;;;;15.32;69.80;99954.22;1788247;79;20182;-61
2021/05/01 03:35:56;;;;;;;;;;;;;;;15.91;68.52;99955.13;1780480;79;20671;-60
2021/05/01 03:38:24;;;;;;;;;;;;;;;16.50;66.96;99950.45;1789264;79;20544;-59
2021/05/01 03:40:52;;;;;;;;;;;;;;;16.95;65.42;99950.27;1789205;79;21316;-60
2021/05/01 03:43:20;;;;;;;;;;;;;;;17.26;64.13;99950.25;1789631;79;20321;-59
2021/05/01 03:45:48;;;;;;;;;;;;;;;17.42;63.22;99950.50;1756984;79;20158;-60
2021/05/01 03:48:16;;;;;;;;;;;;;;;17.51;62.67;99948.05;1788836;79;20255;-61
2021/05/01 03:50:44;;;;;;;;;;;;;;;17.58;62.26;99950.45;1792772;79;20234;-59
2021/05/01 03:53:12;;;;;;;;;;;;;;;17.57;61.97;99950.20;1789821;79;21189;-60
2021/05/01 03:55:40;;;;;;;;;;;;;;;17.50;61.96;99955.37;1786647;79;20413;-60
2021/05/01 03:58:09;;;;;;;;;;;;;;;17.47;62.04;99957.25;1788598;79;20154;-59
2021/05/01 04:00:36;;;;;;;;;;;;;;;17.52;62.02;99952.39;1788852;79;20322;-59
2021/05/01 04:03:05;;;;;;;;;;;;;;;17.63;61.96;99955.31;1789788;79;20296;-60
2021/05/01 04:05:33;;;;;;;;;;;;;;;17.84;61.53;99956.61;1792685;79;21195;-60
2021/05/01 04:08:01;;;;;;;;;;;;;;;17.93;61.15;99960.43;1789856;79;20881;-60
2021/05/01 04:10:29;;;;;;;;;;;;;;;18.03;60.94;99967.69;1788089;79;20309;-59
2021/05/01 04:12:56;;;;;;;;;;;;;;;18.23;60.52;99970.04;1787794;79;20186;-59
2021/05/01 04:15:25;;;;;;;;;;;;;;;18.63;60.00;99979.87;1792916;79;20308;-59
2021/05/01 04:17:53;;;;;;;;;;;;;;;19.45;58.61;99985.23;1760542;79;21202;-60
2021/05/01 04:20:21;;;;;;;;;;;;;;;20.45;56.32;99990.91;1758442;79;20588;-61
2021/05/01 04:22:51;;;;;;;;;;;;;;;21.45;53.78;99992.65;1788604;79;20172;-60
2021/05/01 04:25:19;;;;;;;;;;;;;;;22.28;51.25;99991.08;1789162;79;20706;-60
2021/05/01 04:27:47;;;;;;;;;;;;;;;22.96;49.41;99986.55;1789722;79;20292;-60
2021/05/01 04:30:16;;;;;;;;;;;;;;;23.59;47.66;99994.84;1789523;79;21383;-61
2021/05/01 04:32:44;;;;;;;;;;;;;;;24.08;46.33;99996.26;1789285;79;20222;-61
2021/05/01 04:35:12;;;;;;;;;;;;;;;24.33;45.30;100001.55;1785218;79;20289;-59
2021/05/01 04:37:41;;;;;;;;;;;;;;;24.43;44.74;100003.98;1789504;78;20235;-61
2021/05/01 04:40:10;;;;;;;;;;;;;;;24.43;44.58;99999.08;1789657;79;20234;-62
2021/05/01 04:42:42;;;;;;;;;;;;;;;24.35;44.59;100002.59;1789080;79;21183;-60
2021/05/01 04:45:10;;;;;;;;;;;;;;;24.34;44.55;100010.56;1765309;79;20203;-60
2021/05/01 04:47:38;;;;;;;;;;;;;;;24.29;44.47;100008.78;1786379;79;20158;-60
2021/05/01 04:50:06;;;;;;;;;;;;;;;24.19;44.34;100009.91;1788344;79;20238;-59
2021/05/01 04:52:34;;;;;;;;;;;;;;;24.07;44.48;100013.80;1789891;79;20322;-62
2021/05/01 04:55:09;;;;;;;;;;;;;;;23.96;44.44;100010.55;1784787;79;21988;-61
2021/05/01 04:57:32;;;;;;;;;;;;;;;23.83;44.88;100009.50;1779758;79;20175;-60
2021/05/01 05:00:00;;;;;;;;;;;;;;;23.72;45.19;100012.30;1764889;79;20282;-61
2021/05/01 05:02:28;;;;;;;;;;;;;;;23.62;44.95;100014.16;1786980;79;20194;-64
2021/05/01 05:04:56;;;;;;;;;;;;;;;23.52;45.16;100013.06;1788298;79;20245;-61
2021/05/01 05:07:24;;;;;;;;;;;;;;;23.39;45.33;100016.12;1789301;79;21980;-61
2021/05/01 05:09:52;;;;;;;;;;;;;;;23.28;45.52;100020.25;1789100;79;20293;-63
2021/05/01 05:12:20;;;;;;;;;;;;;;;23.23;45.64;100018.45;1763314;79;20239;-62
2021/05/01 05:14:47;;;;;;;;;;;;;;;23.18;45.51;100020.50;1789152;79;20239;-60
2021/05/01 05:17:15;;;;;;;;;;;;;;;23.14;45.79;100029.07;1763057;79;20548;-60
2021/05/01 05:19:45;;;;;;;;;;;;;;;23.16;46.25;100034.48;1786854;79;21190;-60
2021/05/01 05:22:13;;;;;;;;;;;;;;;23.22;45.83;100036.54;1789034;79;20578;-60
2021/05/01 05:24:41;;;;;;;;;;;;;;;23.18;45.64;100043.17;1788793;79;20210;-61
2021/05/01 05:27:09;;;;;;;;;;;;;;;23.20;46.02;100046.95;1787470;79;20681;-61
2021/05/01 05:29:40;;;;;;;;;;;;;;;23.31;45.87;100050.27;1785918;79;20258;-60
2021/05/01 05:32:07;;;;;;;;;;;;;;;23.42;45.57;100045.60;1788525;79;22478;-61
2021/05/01 05:34:35;;;;;;;;;;;;;;;23.41;46.03;100052.18;1788508;79;20140;-60
2021/05/01 05:37:04;;;;;;;;;;;;;;;23.53;45.72;100046.14;1789231;79;20160;-60
2021/05/01 05:39:32;;;;;;;;;;;;;;;23.64;44.44;100041.77;1766819;79;20123;-60
2021/05/01 05:42:00;;;;;;;;;;;;;;;23.61;44.41;100044.02;1789258;79;20342;-61
2021/05/01 05:44:30;;;;;;;;;;;;;;;23.67;43.98;100037.03;1786745;79;21262;-62
2021/05/01 05:46:58;;;;;;;;;;;;;;;23.75;43.76;100041.19;1787758;79;20150;-60
2021/05/01 05:49:25;;;;;;;;;;;;;;;23.78;43.95;100039.19;1787697;79;20238;-59
2021/05/01 05:51:53;;;;;;;;;;;;;;;23.88;44.04;100042.79;1784947;79;20247;-59
2021/05/01 05:54:21;;;;;;;;;;;;;;;24.03;43.04;100048.40;1789227;79;20337;-60
2021/05/01 05:56:49;;;;;;;;;;;;;;;24.07;42.29;100051.58;1789464;79;22611;-60
2021/05/01 05:59:17;;;;;;;;;;;;;;;23.97;42.26;100045.02;1788119;79;20283;-61
2021/05/01 06:01:46;;;;;;;;;;;;;;;23.74;42.68;100045.03;1697634;83;20322;-61
2021/05/01 06:04:17;;;;;;;;;;;;;;;23.61;42.96;100045.93;1704943;83;20261;-62
2021/05/01 06:06:56;;;;;;;;;;;;;;;23.65;43.39;100051.03;1813381;77;20263;-60
2021/05/01 06:09:25;;;;;;;;;;;;;;;23.67;43.39;100054.82;1832678;77;20193;-61
2021/05/01 06:11:53;;;;;;;;;;;;;;;23.80;43.56;100056.66;1833173;77;21153;-64
2021/05/01 06:14:21;;;;;;;;;;;;;;;24.03;43.94;100059.34;1832811;77;20162;-61
2021/05/01 06:16:49;;;;;;;;;;;;;;;24.28;42.39;100060.59;1824272;77;20500;-61
2021/05/01 06:19:18;;;;;;;;;;;;;;;24.83;41.81;100058.68;1834706;77;20178;-60
2021/05/01 06:21:45;;;;;;;;;;;;;;;26.00;40.45;100062.56;1833988;77;20107;-63
2021/05/01 06:24:13;;;;;;;;;;;;;;;27.33;38.20;100056.70;1830037;77;22505;-63
2021/05/01 06:26:42;;;;;;;;;;;;;;;28.44;36.94;100065.09;1832167;77;20191;-66
2021/05/01 06:29:10;;;;;;;;;;;;;;;28.74;34.13;100064.03;1834192;77;20107;-63
2021/05/01 06:31:38;;;;;;;;;;;;;;;28.23;35.15;100061.69;1833825;77;20164;-63
2021/05/01 06:34:07;;;;;;;;;;;;;;;27.59;36.48;100057.80;1832584;77;20123;-63
2021/05/01 06:36:35;;;;;;;;;;;;;;;26.97;37.35;100066.36;1832763;77;21379;-63
2021/05/01 06:39:05;;;;;;;;;;;;;;;26.30;38.50;100074.97;1815665;78;20477;-60
2021/05/01 06:41:43;;;;;;;;;;;;;;;25.73;40.85;100078.30;1816751;78;20142;-60
2021/05/01 06:44:14;;;;;;;;;;;;;;;25.19;41.75;100075.39;1807694;78;20222;-65
2021/05/01 06:46:48;;;;;;;;;;;;;;;24.64;43.72;100084.22;1813125;78;20226;-68
2021/05/01 06:49:25;;;;;;;;;;;;;;;24.19;44.60;100089.31;1820482;78;21264;-65
2021/05/01 06:51:53;;;;;;;;;;;;;;;23.82;45.00;100084.50;1819037;78;20210;-65
2021/05/01 06:54:21;;;;;;;;;;;;;;;23.52;46.37;100091.58;1824839;77;20155;-63
2021/05/01 06:56:49;;;;;;;;;;;;;;;23.26;46.46;100093.56;1817795;78;20173;-62
2021/05/01 06:59:18;;;;;;;;;;;;;;;22.97;46.23;100096.66;1817246;78;20282;-66
2021/05/01 07:01:46;;;;;;;;;;;;;;;22.57;46.52;100094.53;1820504;78;21196;-63
2021/05/01 07:04:14;;;;;;;;;;;;;;;22.29;46.90;100100.52;1820952;77;20493;-63
2021/05/01 07:06:43;;;;;;;;;;;;;;;22.07;47.45;100097.11;1814043;78;20137;-62
2021/05/01 07:09:11;;;;;;;;;;;;;;;21.86;47.24;100088.77;1819875;78;20214;-63
2021/05/01 07:11:41;;;;;;;;;;;;;;;21.68;47.77;100095.08;1800831;78;20168;-64
2021/05/01 07:14:10;;;;;;;;;;;;;;;21.47;48.02;100100.05;1812903;78;21195;-64
2021/05/01 07:16:40;;;;;;;;;;;;;;;21.25;48.40;100104.75;1817614;78;20127;-63
2021/05/01 07:19:08;;;;;;;;;;;;;;;20.98;48.07;100098.86;1788803;78;20511;-63
2021/05/01 07:21:37;;;;;;;;;;;;;;;20.62;48.68;100093.85;1810267;78;20510;-62
2021/05/01 07:24:06;;;;;;;;;;;;;;;20.44;49.45;100094.08;1817439;78;20475;-63
2021/05/01 07:26:34;;;;;;;;;;;;;;;20.45;49.29;100088.91;1822609;78;21201;-64
2021/05/01 07:29:03;;;;;;;;;;;;;;;20.51;49.03;100089.66;1822590;78;20212;-62
2021/05/01 07:31:32;;;;;;;;;;;;;;;20.58;48.51;100092.84;1818041;78;20129;-64
2021/05/01 07:34:00;;;;;;;;;;;;;;;20.62;47.87;100091.69;1817288;78;20266;-64
2021/05/01 07:36:34;;;;;;;;;;;;;;;20.67;46.95;100095.76;1817013;78;20285;-64
2021/05/01 07:39:02;;;;;;;;;;;;;;;20.67;46.24;100094.92;1816246;78;21251;-65
2021/05/01 07:41:31;;;;;;;;;;;;;;;20.67;46.36;100100.38;1817999;77;20559;-64
2021/05/01 07:43:59;;;;;;;;;;;;;;;20.65;44.44;100106.08;1761423;78;20491;-64
2021/05/01 07:46:28;;;;;;;;;;;;;;;20.48;45.29;100095.69;1814688;78;20252;-65
2021/05/01 07:48:56;;;;;;;;;;;;;;;20.41;45.42;100095.22;1815163;78;20223;-64
2021/05/01 07:51:26;;;;;;;;;;;;;;;20.42;43.76;100103.62;1806296;79;21205;-64
2021/05/01 07:53:56;;;;;;;;;;;;;;;20.36;43.51;100105.63;1808079;78;20210;-64
2021/05/01 07:56:25;;;;;;;;;;;;;;;20.24;44.33;100109.28;1808551;79;20247;-63
2021/05/01 07:58:54;;;;;;;;;;;;;;;20.24;43.14;100114.73;1802529;79;20777;-64
2021/05/01 08:01:22;;;;;;;;;;;;;;;20.23;43.12;100117.18;1811197;79;20539;-65
2021/05/01 08:03:51;;;;;;;;;;;;;;;20.27;44.45;100111.42;1806544;79;21188;-65
2021/05/01 08:06:19;;;;;;;;;;;;;;;20.38;41.67;100121.11;1805144;78;20241;-64
2021/05/01 08:08:46;;;;;;;;;;;;;;;20.45;40.25;100119.38;1793500;79;20156;-64
2021/05/01 08:11:15;;;;;;;;;;;;;;;20.51;38.47;100128.30;1792015;79;20304;-64
2021/05/01 08:13:45;;;;;;;;;;;;;;;20.53;38.89;100128.84;1801896;79;20200;-64
2021/05/01 08:16:14;;;;;;;;;;;;;;;20.56;38.14;100128.26;1799771;79;21152;-63
2021/05/01 08:18:43;;;;;;;;;;;;;;;20.59;38.44;100127.67;1796495;79;20240;-63
2021/05/01 08:21:19;;;;;;;;;;;;;;;20.71;38.65;100134.09;1818928;77;20216;-64
2021/05/01 08:23:47;;;;;;;;;;;;;;;20.70;38.13;100129.21;1800480;79;20198;-66
2021/05/01 08:26:15;;;;;;;;;;;;;;;20.76;37.98;100127.20;1800445;79;21242;-63
2021/05/01 08:28:44;;;;;;;;;;;;;;;20.81;38.95;100121.70;1801662;79;20152;-64
2021/05/01 08:31:13;;;;;;;;;;;;;;;20.87;36.59;100127.91;1769371;79;20147;-64
2021/05/01 08:33:41;;;;;;;;;;;;;;;20.90;34.81;100136.85;1798049;79;20178;-64
2021/05/01 08:36:10;;;;;;;;;;;;;;;20.88;35.31;100133.05;1802853;79;20127;-63
2021/05/01 08:38:38;;;;;;;;;;;;;;;20.86;35.51;100135.25;1785681;80;20524;-65
2021/05/01 08:41:06;;;;;;;;;;;;;;;20.84;36.11;100136.10;1785674;80;20731;-64
2021/05/01 08:43:34;;;;;;;;;;;;;;;20.82;36.82;100134.23;1786384;80;20159;-64
2021/05/01 08:46:12;;;;;;;;;;;;;;;20.77;37.08;100135.11;1786269;80;20300;-64
2021/05/01 08:48:32;;;;;;;;;;;;;;;20.67;36.72;100137.97;1785990;80;20227;-63
2021/05/01 08:51:01;;;;;;;;;;;;;;;20.47;38.18;100135.69;1783118;80;21359;-63
2021/05/01 08:53:29;;;;;;;;;;;;;;;20.48;38.05;100146.05;1784674;80;20515;-63
2021/05/01 08:55:57;;;;;;;;;;;;;;;20.51;38.21;100138.66;1785868;80;20282;-63
2021/05/01 08:58:25;;;;;;;;;;;;;;;20.54;37.25;100142.16;1785863;80;20226;-65
2021/05/01 09:00:53;;;;;;;;;;;;;;;20.51;37.88;100137.30;1753685;80;20266;-63
2021/05/01 09:03:22;;;;;;;;;;;;;;;20.52;37.46;100145.70;1785962;80;22102;-63
2021/05/01 09:05:53;;;;;;;;;;;;;;;20.49;37.08;100138.13;1786209;80;20159;-64
2021/05/01 09:08:22;;;;;;;;;;;;;;;20.43;38.01;100129.20;1784865;80;20627;-62
2021/05/01 09:10:51;;;;;;;;;;;;;;;20.43;37.83;100134.64;1785666;80;20174;-63
2021/05/01 09:13:24;;;;;;;;;;;;;;;20.47;38.03;100137.05;1769452;80;20258;-64
2021/05/01 09:16:02;;;;;;;;;;;;;;;20.46;38.78;100131.90;1784407;80;20260;-64
2021/05/01 09:18:48;;;;;;;;;;;;;;;20.48;39.45;100139.25;1784661;80;20607;-63
2021/05/01 09:21:19;;;;;;;;;;;;;;;20.56;39.60;100144.03;1775452;80;20179;-64
2021/05/01 09:23:46;;;;;;;;;;;;;;;20.62;39.37;100132.53;1774320;80;20183;-63
2021/05/01 09:26:15;;;;;;;;;;;;;;;20.65;39.87;100142.84;1774269;80;20310;-63
2021/05/01 09:28:44;;;;;;;;;;;;;;;20.71;41.80;100151.23;1752255;80;21206;-63
2021/05/01 09:31:13;;;;;;;;;;;;;;;20.81;40.72;100150.31;1774920;80;20251;-64
2021/05/01 09:33:43;;;;;;;;;;;;;;;20.89;40.74;100144.22;1774412;81;20191;-63
2021/05/01 09:36:16;;;;;;;;;;;;;;;20.95;39.83;100147.12;1771149;81;20274;-65
2021/05/01 09:38:50;;;;;;;;;;;;;;;20.98;39.61;100149.83;1773997;81;20235;-64
2021/05/01 09:41:23;;;;;;;;;;;;;;;21.04;40.68;100144.56;1685565;84;21215;-65
2021/05/01 09:43:57;;;;;;;;;;;;;;;21.09;40.34;100140.95;1685143;85;21108;-63
2021/05/01 09:46:42;;;;;;;;;;;;;;;21.15;39.42;100143.86;1826770;77;20295;-63
2021/05/01 09:49:28;;;;;;;;;;;;;;;21.10;39.52;100148.03;1818684;79;20141;-63
2021/05/01 09:51:57;;;;;;;;;;;;;;;21.11;38.71;100149.63;1817518;79;23274;-63
2021/05/01 09:54:30;;;;;;;;;;;;;;;21.06;38.52;100150.52;1818599;79;20184;-64
2021/05/01 09:57:01;;;;;;;;;;;;;;;21.03;38.43;100153.83;1750328;81;20276;-64
2021/05/01 09:59:48;;;;;;;;;;;;;;;20.98;38.34;100151.99;1754925;81;20168;-63
2021/05/01 10:02:24;;;;;;;;;;;;;;;20.92;38.22;100140.08;1751788;81;20224;-63
2021/05/01 10:05:06;;;;;;;;;;;;;;;20.82;38.84;100146.48;1754872;81;21278;-64
2021/05/01 10:07:35;;;;;;;;;;;;;;;20.78;39.21;100148.97;1750780;81;20538;-64
2021/05/01 10:10:03;;;;;;;;;;;;;;;20.76;40.11;100141.66;1754732;81;20247;-63
2021/05/01 10:12:38;;;;;;;;;;;;;;;20.77;40.04;100140.56;1755047;81;20307;-63
2021/05/01 10:15:23;;;;;;;;;;;;;;;20.83;39.46;100150.81;1828797;77;20349;-63
2021/05/01 10:17:53;;;;;;;;;;;;;;;20.71;39.22;100148.52;1818256;79;20152;-64
2021/05/01 10:20:21;;;;;;;;;;;;;;;20.59;39.26;100155.70;1818804;79;21212;-64
2021/05/01 10:22:50;;;;;;;;;;;;;;;20.48;39.78;100153.66;1818411;78;20283;-62
2021/05/01 10:25:26;;;;;;;;;;;;;;;20.41;39.78;100150.47;1818734;79;20140;-64
2021/05/01 10:27:56;;;;;;;;;;;;;;;20.37;40.36;100156.22;1816426;79;20152;-64
2021/05/01 10:30:29;;;;;;;;;;;;;;;20.33;40.26;100153.81;1815117;79;20141;-64
2021/05/01 10:33:18;;;;;;;;;;;;;;;20.28;40.61;100148.44;1817987;79;21196;-64
2021/05/01 10:36:07;;;;;;;;;;;;;;;20.21;40.05;100139.23;1810905;79;20207;-66
2021/05/01 10:38:37;;;;;;;;;;;;;;;20.12;40.75;100140.97;1804250;79;20561;-63
2021/05/01 10:41:07;;;;;;;;;;;;;;;20.11;40.64;100139.34;1804164;79;20329;-64
2021/05/01 10:43:38;;;;;;;;;;;;;;;20.08;40.49;100138.56;1805054;79;20280;-65
2021/05/01 10:46:08;;;;;;;;;;;;;;;19.99;40.28;100135.65;1804322;79;22809;-64
2021/05/01 10:48:49;;;;;;;;;;;;;;;19.92;40.63;100136.00;1802111;79;20189;-63
2021/05/01 10:51:22;;;;;;;;;;;;;;;19.92;40.54;100146.05;1801598;79;20141;-63
2021/05/01 10:54:15;;;;;;;;;;;;;;;19.87;40.38;100140.11;1802187;79;20942;-63
2021/05/01 10:56:46;;;;;;;;;;;;;;;19.85;41.00;100139.59;1804541;79;20280;-63
2021/05/01 10:59:19;;;;;;;;;;;;;;;19.90;41.43;100142.81;1774209;79;21204;-63
2021/05/01 11:01:48;;;;;;;;;;;;;;;19.95;40.72;100140.87;1800983;79;20250;-63
2021/05/01 11:04:27;;;;;;;;;;;;;;;19.97;40.82;100137.05;1802580;79;20522;-64
2021/05/01 11:07:11;;;;;;;;;;;;;;;20.01;41.25;100134.83;1772886;79;20516;-64
2021/05/01 11:09:43;;;;;;;;;;;;;;;20.09;40.88;100127.39;1804654;79;20296;-64
2021/05/01 11:12:20;;;;;;;;;;;;;;;20.15;40.72;100115.11;1802320;79;21468;-64
2021/05/01 11:14:52;;;;;;;;;;;;;;;20.21;40.43;100125.63;1795077;79;20237;-62
2021/05/01 11:17:36;;;;;;;;;;;;;;;20.23;39.79;100128.89;1792498;80;20130;-63
2021/05/01 11:20:16;;;;;;;;;;;;;;;20.22;39.92;100128.63;1793378;79;20283;-63
2021/05/01 11:22:47;;;;;;;;;;;;;;;20.23;40.77;100125.34;1792402;80;20296;-64
2021/05/01 11:25:16;;;;;;;;;;;;;;;20.26;40.95;100121.52;1794150;80;20495;-64
2021/05/01 11:27:47;;;;;;;;;;;;;;;20.33;41.43;100114.91;1792906;80;20245;-63
2021/05/01 11:30:22;;;;;;;;;;;;;;;20.39;42.90;100118.66;1793284;80;20722;-65
2021/05/01 11:32:50;;;;;;;;;;;;;;;20.46;40.87;100112.31;1790902;80;20672;-63
2021/05/01 11:35:20;;;;;;;;;;;;;;;20.52;40.62;100108.16;1793129;80;20276;-63
2021/05/01 11:37:49;;;;;;;;;;;;;;;20.53;39.76;100107.06;1789920;79;21363;-62
2021/05/01 11:40:22;;;;;;;;;;;;;;;20.47;39.94;100104.95;1790150;80;20162;-66
2021/05/01 11:42:50;;;;;;;;;;;;;;;20.45;39.41;100107.12;1791045;80;20546;-63
2021/05/01 11:45:29;;;;;;;;;;;;;;;20.44;40.01;100104.17;1793070;80;20269;-65
2021/05/01 11:48:02;;;;;;;;;;;;;;;20.43;39.47;100097.89;1793377;80;20217;-63
2021/05/01 11:50:28;;;;;;;;;;;;;;;20.41;39.21;100098.75;1790461;80;22141;-64
2021/05/01 11:53:15;;;;;;;;;;;;;;;20.38;39.19;100098.53;1793557;80;21000;-63
2021/05/01 11:55:59;;;;;;;;;;;;;;;20.33;39.29;100092.57;1793058;80;20272;-65
2021/05/01 11:58:34;;;;;;;;;;;;;;;20.34;39.55;100102.93;1728782;83;20238;-63
2021/05/01 12:01:11;;;;;;;;;;;;;;;20.33;39.00;100094.49;1726577;83;20253;-63
2021/05/01 12:03:57;;;;;;;;;;;;;;;20.29;39.70;100092.91;1831603;76;20958;-64
2021/05/01 12:06:35;;;;;;;;;;;;;;;20.25;40.31;100092.66;1801826;79;20127;-64
2021/05/01 12:09:11;;;;;;;;;;;;;;;20.29;40.18;100083.39;1796881;79;21629;-64
2021/05/01 12:11:39;;;;;;;;;;;;;;;20.34;40.05;100083.88;1798739;79;20275;-62
2021/05/01 12:14:08;;;;;;;;;;;;;;;20.38;39.99;100084.92;1782474;79;20174;-64
2021/05/01 12:16:36;;;;;;;;;;;;;;;20.43;40.66;100083.48;1781301;79;20194;-62
2021/05/01 12:19:04;;;;;;;;;;;;;;;20.49;40.56;100079.59;1794790;79;20127;-62
2021/05/01 12:21:41;;;;;;;;;;;;;;;20.52;39.93;100072.20;1766750;80;22443;-62
2021/05/01 12:24:27;;;;;;;;;;;;;;;20.55;40.21;100072.17;1774411;79;20172;-63
2021/05/01 12:26:55;;;;;;;;;;;;;;;20.56;40.21;100075.97;1759460;79;20278;-61
2021/05/01 12:29:28;;;;;;;;;;;;;;;20.53;40.25;100067.02;1794098;79;20590;-63
2021/05/01 12:32:06;;;;;;;;;;;;;;;20.54;40.23;100064.57;1794679;79;20263;-63
2021/05/01 12:34:51;;;;;;;;;;;;;;;20.55;40.29;100061.28;1800028;79;21372;-62
2021/05/01 12:37:20;;;;;;;;;;;;;;;20.56;40.35;100056.11;1801212;77;20556;-63
2021/05/01 12:39:48;;;;;;;;;;;;;;;20.52;39.68;100057.22;1799970;77;20237;-63
2021/05/01 12:42:28;;;;;;;;;;;;;;;20.37;40.37;100061.52;1799583;77;20292;-63
2021/05/01 12:44:55;;;;;;;;;;;;;;;20.28;40.85;100066.79;1799289;77;20638;-64
2021/05/01 12:47:40;;;;;;;;;;;;;;;20.27;40.88;100062.44;1640342;85;21325;-64
2021/05/01 12:50:24;;;;;;;;;;;;;;;20.29;40.87;100067.06;1644765;86;20572;-62
2021/05/01 12:52:50;;;;;;;;;;;;;;;20.28;40.37;100066.23;1620345;86;20527;-63
2021/05/01 12:55:18;;;;;;;;;;;;;;;20.24;40.69;100067.11;1599549;87;20253;-62